sensor_id;sensor_type;location;lat;lon;timestamp;P1;durP1;ratioP1;P2;durP2;ratioP2
8654;SDS011;13500;52.514;13.462;2024-02-26T00:02:24;12.93;;;9.53;;
8654;SDS011;13500;52.514;13.462;2024-02-26T00:04:51;17.00;;;9.60;;
8654;SDS011;13500;52.514;13.462;2024-02-26T00:07:19;13.27;;;8.93;;
8654;SDS011;13500;52.514;13.462;2024-02-26T00:09:49;15.87;;;9.47;;
8654;SDS011;13500;52.514;13.462;2024-02-26T00:12:17;13.50;;;9.90;;
8654;SDS011;13500;52.514;13.462;2024-02-26T00:14:45;13.80;;;10.23;;
8654;SDS011;13500;52.514;13.462;2024-02-26T00:17:14;11.10;;;9.07;;
8654;SDS011;13500;52.514;13.462;2024-02-26T00:19:42;14.27;;;9.57;;
8654;SDS011;13500;52.514;13.462;2024-02-26T00:22:11;15.83;;;9.37;;
8654;SDS011;13500;52.514;13.462;2024-02-26T00:24:39;12.33;;;9.03;;
8654;SDS011;13500;52.514;13.462;2024-02-26T00:27:09;13.67;;;9.90;;
8654;SDS011;13500;52.514;13.462;2024-02-26T00:29:37;13.60;;;9.00;;
8654;SDS011;13500;52.514;13.462;2024-02-26T00:32:05;13.13;;;9.10;;
8654;SDS011;13500;52.514;13.462;2024-02-26T00:34:33;14.23;;;8.93;;
8654;SDS011;13500;52.514;13.462;2024-02-26T00:37:01;15.70;;;8.23;;
8654;SDS011;13500;52.514;13.462;2024-02-26T00:39:29;11.70;;;9.03;;
8654;SDS011;13500;52.514;13.462;2024-02-26T00:41:57;11.27;;;7.93;;
8654;SDS011;13500;52.514;13.462;2024-02-26T00:44:27;10.30;;;8.40;;
8654;SDS011;13500;52.514;13.462;2024-02-26T00:46:54;10.60;;;8.23;;
8654;SDS011;13500;52.514;13.462;2024-02-26T00:49:22;12.33;;;8.90;;
8654;SDS011;13500;52.514;13.462;2024-02-26T00:51:50;10.20;;;7.80;;
8654;SDS011;13500;52.514;13.462;2024-02-26T00:54:18;9.73;;;7.80;;
8654;SDS011;13500;52.514;13.462;2024-02-26T00:56:46;10.03;;;7.97;;
8654;SDS011;13500;52.514;13.462;2024-02-26T00:59:14;10.77;;;7.90;;
8654;SDS011;13500;52.514;13.462;2024-02-26T01:01:44;10.00;;;7.77;;
8654;SDS011;13500;52.514;13.462;2024-02-26T01:04:14;10.47;;;7.77;;
8654;SDS011;13500;52.514;13.462;2024-02-26T01:06:42;9.67;;;7.37;;
8654;SDS011;13500;52.514;13.462;2024-02-26T01:09:10;9.67;;;7.07;;
8654;SDS011;13500;52.514;13.462;2024-02-26T01:11:38;8.57;;;6.97;;
8654;SDS011;13500;52.514;13.462;2024-02-26T01:14:06;9.77;;;6.27;;
8654;SDS011;13500;52.514;13.462;2024-02-26T01:16:34;7.60;;;6.17;;
8654;SDS011;13500;52.514;13.462;2024-02-26T01:19:04;7.33;;;5.57;;
8654;SDS011;13500;52.514;13.462;2024-02-26T01:21:32;7.10;;;5.63;;
8654;SDS011;13500;52.514;13.462;2024-02-26T01:24:00;8.37;;;5.93;;
8654;SDS011;13500;52.514;13.462;2024-02-26T01:26:28;7.50;;;5.67;;
8654;SDS011;13500;52.514;13.462;2024-02-26T01:28:55;9.27;;;5.87;;
8654;SDS011;13500;52.514;13.462;2024-02-26T01:31:23;7.27;;;5.53;;
8654;SDS011;13500;52.514;13.462;2024-02-26T01:33:51;8.20;;;5.40;;
8654;SDS011;13500;52.514;13.462;2024-02-26T01:36:21;8.17;;;5.50;;
8654;SDS011;13500;52.514;13.462;2024-02-26T01:38:49;8.97;;;5.47;;
8654;SDS011;13500;52.514;13.462;2024-02-26T01:41:17;8.03;;;5.87;;
8654;SDS011;13500;52.514;13.462;2024-02-26T01:43:45;8.50;;;5.63;;
8654;SDS011;13500;52.514;13.462;2024-02-26T01:46:13;6.60;;;5.23;;
8654;SDS011;13500;52.514;13.462;2024-02-26T01:48:41;9.10;;;5.83;;
8654;SDS011;13500;52.514;13.462;2024-02-26T01:51:10;10.50;;;6.00;;
8654;SDS011;13500;52.514;13.462;2024-02-26T01:53:39;10.20;;;5.93;;
8654;SDS011;13500;52.514;13.462;2024-02-26T01:56:08;6.63;;;5.47;;
8654;SDS011;13500;52.514;13.462;2024-02-26T01:58:36;5.80;;;5.03;;
8654;SDS011;13500;52.514;13.462;2024-02-26T02:01:04;7.77;;;5.43;;
8654;SDS011;13500;52.514;13.462;2024-02-26T02:03:32;7.47;;;5.47;;
8654;SDS011;13500;52.514;13.462;2024-02-26T02:06:01;6.67;;;5.47;;
8654;SDS011;13500;52.514;13.462;2024-02-26T02:08:30;6.67;;;5.90;;
8654;SDS011;13500;52.514;13.462;2024-02-26T02:10:59;6.60;;;5.50;;
8654;SDS011;13500;52.514;13.462;2024-02-26T02:13:28;6.53;;;5.30;;
8654;SDS011;13500;52.514;13.462;2024-02-26T02:15:55;7.43;;;5.80;;
8654;SDS011;13500;52.514;13.462;2024-02-26T02:18:23;7.20;;;5.23;;
8654;SDS011;13500;52.514;13.462;2024-02-26T02:20:53;7.30;;;5.47;;
8654;SDS011;13500;52.514;13.462;2024-02-26T02:23:22;8.37;;;5.10;;
8654;SDS011;13500;52.514;13.462;2024-02-26T02:25:50;7.47;;;4.97;;
8654;SDS011;13500;52.514;13.462;2024-02-26T02:28:18;7.57;;;5.07;;
8654;SDS011;13500;52.514;13.462;2024-02-26T02:30:46;5.10;;;4.53;;
8654;SDS011;13500;52.514;13.462;2024-02-26T02:33:14;7.47;;;4.10;;
8654;SDS011;13500;52.514;13.462;2024-02-26T02:35:43;5.70;;;4.63;;
8654;SDS011;13500;52.514;13.462;2024-02-26T02:38:15;7.00;;;4.53;;
8654;SDS011;13500;52.514;13.462;2024-02-26T02:40:43;5.57;;;4.33;;
8654;SDS011;13500;52.514;13.462;2024-02-26T02:43:11;7.20;;;4.60;;
8654;SDS011;13500;52.514;13.462;2024-02-26T02:45:39;5.20;;;3.83;;
8654;SDS011;13500;52.514;13.462;2024-02-26T02:48:07;5.67;;;4.33;;
8654;SDS011;13500;52.514;13.462;2024-02-26T02:50:35;6.50;;;4.50;;
8654;SDS011;13500;52.514;13.462;2024-02-26T02:53:03;6.33;;;4.03;;
8654;SDS011;13500;52.514;13.462;2024-02-26T02:55:33;5.57;;;4.37;;
8654;SDS011;13500;52.514;13.462;2024-02-26T02:58:02;6.63;;;4.47;;
8654;SDS011;13500;52.514;13.462;2024-02-26T03:00:31;5.40;;;4.60;;
8654;SDS011;13500;52.514;13.462;2024-02-26T03:02:59;5.90;;;4.50;;
8654;SDS011;13500;52.514;13.462;2024-02-26T03:05:27;6.93;;;4.50;;
8654;SDS011;13500;52.514;13.462;2024-02-26T03:07:55;6.03;;;4.43;;
8654;SDS011;13500;52.514;13.462;2024-02-26T03:10:23;7.73;;;5.20;;
8654;SDS011;13500;52.514;13.462;2024-02-26T03:12:53;7.77;;;5.10;;
8654;SDS011;13500;52.514;13.462;2024-02-26T03:15:22;6.77;;;4.47;;
8654;SDS011;13500;52.514;13.462;2024-02-26T03:17:50;7.07;;;4.57;;
8654;SDS011;13500;52.514;13.462;2024-02-26T03:20:19;5.87;;;4.37;;
8654;SDS011;13500;52.514;13.462;2024-02-26T03:22:47;6.00;;;4.87;;
8654;SDS011;13500;52.514;13.462;2024-02-26T03:25:15;10.27;;;5.10;;
8654;SDS011;13500;52.514;13.462;2024-02-26T03:27:42;5.83;;;4.63;;
8654;SDS011;13500;52.514;13.462;2024-02-26T03:30:12;5.27;;;4.43;;
8654;SDS011;13500;52.514;13.462;2024-02-26T03:32:40;7.87;;;5.37;;
8654;SDS011;13500;52.514;13.462;2024-02-26T03:35:08;7.53;;;5.10;;
8654;SDS011;13500;52.514;13.462;2024-02-26T03:37:36;6.90;;;5.77;;
8654;SDS011;13500;52.514;13.462;2024-02-26T03:40:05;7.33;;;5.70;;
8654;SDS011;13500;52.514;13.462;2024-02-26T03:42:34;7.13;;;5.70;;
8654;SDS011;13500;52.514;13.462;2024-02-26T03:45:02;8.17;;;5.90;;
8654;SDS011;13500;52.514;13.462;2024-02-26T03:47:31;6.57;;;5.13;;
8654;SDS011;13500;52.514;13.462;2024-02-26T03:49:59;7.30;;;5.30;;
8654;SDS011;13500;52.514;13.462;2024-02-26T03:52:27;6.67;;;5.57;;
8654;SDS011;13500;52.514;13.462;2024-02-26T03:54:55;7.93;;;6.17;;
8654;SDS011;13500;52.514;13.462;2024-02-26T03:57:23;7.57;;;5.83;;
8654;SDS011;13500;52.514;13.462;2024-02-26T03:59:51;8.07;;;5.70;;
8654;SDS011;13500;52.514;13.462;2024-02-26T04:02:19;7.73;;;5.83;;
8654;SDS011;13500;52.514;13.462;2024-02-26T04:04:48;6.83;;;5.47;;
8654;SDS011;13500;52.514;13.462;2024-02-26T04:07:16;7.17;;;5.70;;
8654;SDS011;13500;52.514;13.462;2024-02-26T04:09:44;8.90;;;6.50;;
8654;SDS011;13500;52.514;13.462;2024-02-26T04:12:12;9.40;;;5.80;;
8654;SDS011;13500;52.514;13.462;2024-02-26T04:14:41;7.63;;;5.63;;
8654;SDS011;13500;52.514;13.462;2024-02-26T04:17:09;8.67;;;6.17;;
8654;SDS011;13500;52.514;13.462;2024-02-26T04:19:37;8.00;;;6.10;;
8654;SDS011;13500;52.514;13.462;2024-02-26T04:22:07;6.83;;;6.10;;
8654;SDS011;13500;52.514;13.462;2024-02-26T04:24:35;9.07;;;6.70;;
8654;SDS011;13500;52.514;13.462;2024-02-26T04:27:04;9.20;;;6.57;;
8654;SDS011;13500;52.514;13.462;2024-02-26T04:29:32;8.80;;;6.23;;
8654;SDS011;13500;52.514;13.462;2024-02-26T04:31:59;9.97;;;6.40;;
8654;SDS011;13500;52.514;13.462;2024-02-26T04:34:27;7.47;;;6.30;;
8654;SDS011;13500;52.514;13.462;2024-02-26T04:36:55;8.10;;;6.20;;
8654;SDS011;13500;52.514;13.462;2024-02-26T04:39:24;8.30;;;6.47;;
8654;SDS011;13500;52.514;13.462;2024-02-26T04:41:53;11.63;;;7.50;;
8654;SDS011;13500;52.514;13.462;2024-02-26T04:44:21;10.60;;;6.90;;
8654;SDS011;13500;52.514;13.462;2024-02-26T04:46:49;13.03;;;8.03;;
8654;SDS011;13500;52.514;13.462;2024-02-26T04:49:17;12.50;;;8.37;;
8654;SDS011;13500;52.514;13.462;2024-02-26T04:51:45;9.77;;;7.17;;
8654;SDS011;13500;52.514;13.462;2024-02-26T04:54:14;10.70;;;7.53;;
8654;SDS011;13500;52.514;13.462;2024-02-26T04:56:43;11.23;;;7.90;;
8654;SDS011;13500;52.514;13.462;2024-02-26T04:59:11;15.23;;;8.13;;
8654;SDS011;13500;52.514;13.462;2024-02-26T05:01:39;12.10;;;7.40;;
8654;SDS011;13500;52.514;13.462;2024-02-26T05:04:08;12.50;;;8.27;;
8654;SDS011;13500;52.514;13.462;2024-02-26T05:06:36;10.70;;;7.90;;
8654;SDS011;13500;52.514;13.462;2024-02-26T05:09:04;10.87;;;8.07;;
8654;SDS011;13500;52.514;13.462;2024-02-26T05:11:32;11.50;;;8.23;;
8654;SDS011;13500;52.514;13.462;2024-02-26T05:14:02;11.27;;;7.53;;
8654;SDS011;13500;52.514;13.462;2024-02-26T05:16:30;10.73;;;8.47;;
8654;SDS011;13500;52.514;13.462;2024-02-26T05:18:58;19.90;;;9.87;;
8654;SDS011;13500;52.514;13.462;2024-02-26T05:21:28;20.03;;;10.80;;
8654;SDS011;13500;52.514;13.462;2024-02-26T05:23:57;19.00;;;9.70;;
8654;SDS011;13500;52.514;13.462;2024-02-26T05:26:25;13.77;;;9.77;;
8654;SDS011;13500;52.514;13.462;2024-02-26T05:28:53;20.23;;;10.77;;
8654;SDS011;13500;52.514;13.462;2024-02-26T05:31:27;18.63;;;10.23;;
8654;SDS011;13500;52.514;13.462;2024-02-26T05:33:56;15.63;;;9.73;;
8654;SDS011;13500;52.514;13.462;2024-02-26T05:36:24;18.33;;;9.63;;
8654;SDS011;13500;52.514;13.462;2024-02-26T05:38:52;13.40;;;8.70;;
8654;SDS011;13500;52.514;13.462;2024-02-26T05:41:20;14.53;;;8.97;;
8654;SDS011;13500;52.514;13.462;2024-02-26T05:43:51;14.73;;;9.47;;
8654;SDS011;13500;52.514;13.462;2024-02-26T05:46:19;15.00;;;10.40;;
8654;SDS011;13500;52.514;13.462;2024-02-26T05:48:50;14.10;;;10.00;;
8654;SDS011;13500;52.514;13.462;2024-02-26T05:51:19;15.77;;;8.93;;
8654;SDS011;13500;52.514;13.462;2024-02-26T05:53:47;13.47;;;9.03;;
8654;SDS011;13500;52.514;13.462;2024-02-26T05:56:21;16.77;;;9.20;;
8654;SDS011;13500;52.514;13.462;2024-02-26T05:58:49;16.43;;;9.67;;
8654;SDS011;13500;52.514;13.462;2024-02-26T06:01:17;11.47;;;9.00;;
8654;SDS011;13500;52.514;13.462;2024-02-26T06:03:45;15.30;;;9.17;;
8654;SDS011;13500;52.514;13.462;2024-02-26T06:06:14;14.30;;;9.73;;
8654;SDS011;13500;52.514;13.462;2024-02-26T06:08:42;14.10;;;9.23;;
8654;SDS011;13500;52.514;13.462;2024-02-26T06:11:11;14.03;;;9.47;;
8654;SDS011;13500;52.514;13.462;2024-02-26T06:13:38;15.03;;;9.87;;
8654;SDS011;13500;52.514;13.462;2024-02-26T06:16:07;12.40;;;9.53;;
8654;SDS011;13500;52.514;13.462;2024-02-26T06:18:35;16.57;;;10.30;;
8654;SDS011;13500;52.514;13.462;2024-02-26T06:21:08;16.07;;;11.07;;
8654;SDS011;13500;52.514;13.462;2024-02-26T06:23:38;20.67;;;10.40;;
8654;SDS011;13500;52.514;13.462;2024-02-26T06:26:06;15.20;;;9.53;;
8654;SDS011;13500;52.514;13.462;2024-02-26T06:28:34;14.30;;;10.33;;
8654;SDS011;13500;52.514;13.462;2024-02-26T06:31:02;16.00;;;9.77;;
8654;SDS011;13500;52.514;13.462;2024-02-26T06:33:30;14.17;;;10.60;;
8654;SDS011;13500;52.514;13.462;2024-02-26T06:35:58;15.23;;;10.43;;
8654;SDS011;13500;52.514;13.462;2024-02-26T06:38:26;13.80;;;10.17;;
8654;SDS011;13500;52.514;13.462;2024-02-26T06:40:56;13.47;;;10.20;;
8654;SDS011;13500;52.514;13.462;2024-02-26T06:43:24;20.00;;;10.63;;
8654;SDS011;13500;52.514;13.462;2024-02-26T06:45:52;15.23;;;10.40;;
8654;SDS011;13500;52.514;13.462;2024-02-26T06:48:20;17.23;;;10.57;;
8654;SDS011;13500;52.514;13.462;2024-02-26T06:50:48;15.83;;;11.10;;
8654;SDS011;13500;52.514;13.462;2024-02-26T06:53:16;12.67;;;9.80;;
8654;SDS011;13500;52.514;13.462;2024-02-26T06:55:44;13.20;;;9.67;;
8654;SDS011;13500;52.514;13.462;2024-02-26T06:58:13;12.27;;;8.93;;
8654;SDS011;13500;52.514;13.462;2024-02-26T07:00:41;14.77;;;9.10;;
8654;SDS011;13500;52.514;13.462;2024-02-26T07:03:09;14.30;;;9.90;;
8654;SDS011;13500;52.514;13.462;2024-02-26T07:05:37;13.00;;;10.13;;
8654;SDS011;13500;52.514;13.462;2024-02-26T07:08:05;11.83;;;8.83;;
8654;SDS011;13500;52.514;13.462;2024-02-26T07:10:34;12.47;;;8.47;;
8654;SDS011;13500;52.514;13.462;2024-02-26T07:13:02;15.53;;;8.57;;
8654;SDS011;13500;52.514;13.462;2024-02-26T07:15:31;11.37;;;8.50;;
8654;SDS011;13500;52.514;13.462;2024-02-26T07:17:59;11.00;;;8.50;;
8654;SDS011;13500;52.514;13.462;2024-02-26T07:20:30;9.60;;;8.20;;
8654;SDS011;13500;52.514;13.462;2024-02-26T07:22:58;15.03;;;8.37;;
8654;SDS011;13500;52.514;13.462;2024-02-26T07:25:26;14.20;;;8.87;;
8654;SDS011;13500;52.514;13.462;2024-02-26T07:27:54;11.00;;;8.50;;
8654;SDS011;13500;52.514;13.462;2024-02-26T07:30:21;9.97;;;8.43;;
8654;SDS011;13500;52.514;13.462;2024-02-26T07:32:53;14.33;;;9.13;;
8654;SDS011;13500;52.514;13.462;2024-02-26T07:35:21;13.33;;;11.93;;
8654;SDS011;13500;52.514;13.462;2024-02-26T07:37:49;11.43;;;8.57;;
8654;SDS011;13500;52.514;13.462;2024-02-26T07:40:17;12.27;;;8.43;;
8654;SDS011;13500;52.514;13.462;2024-02-26T07:42:45;11.57;;;8.97;;
8654;SDS011;13500;52.514;13.462;2024-02-26T07:45:13;11.10;;;8.97;;
8654;SDS011;13500;52.514;13.462;2024-02-26T07:47:42;12.53;;;9.83;;
8654;SDS011;13500;52.514;13.462;2024-02-26T07:50:11;10.87;;;9.27;;
8654;SDS011;13500;52.514;13.462;2024-02-26T07:52:39;10.10;;;9.00;;
8654;SDS011;13500;52.514;13.462;2024-02-26T07:55:08;14.07;;;10.13;;
8654;SDS011;13500;52.514;13.462;2024-02-26T07:57:36;17.17;;;10.10;;
8654;SDS011;13500;52.514;13.462;2024-02-26T08:00:03;12.23;;;9.40;;
8654;SDS011;13500;52.514;13.462;2024-02-26T08:02:33;12.00;;;10.20;;
8654;SDS011;13500;52.514;13.462;2024-02-26T08:05:01;11.07;;;9.67;;
8654;SDS011;13500;52.514;13.462;2024-02-26T08:07:31;11.97;;;10.17;;
8654;SDS011;13500;52.514;13.462;2024-02-26T08:09:59;13.00;;;10.73;;
8654;SDS011;13500;52.514;13.462;2024-02-26T08:12:27;11.00;;;9.90;;
8654;SDS011;13500;52.514;13.462;2024-02-26T08:14:54;13.77;;;10.33;;
8654;SDS011;13500;52.514;13.462;2024-02-26T08:17:22;13.57;;;11.63;;
8654;SDS011;13500;52.514;13.462;2024-02-26T08:19:50;13.70;;;10.83;;
8654;SDS011;13500;52.514;13.462;2024-02-26T08:22:18;19.13;;;11.83;;
8654;SDS011;13500;52.514;13.462;2024-02-26T08:24:47;16.23;;;11.43;;
8654;SDS011;13500;52.514;13.462;2024-02-26T08:27:15;15.50;;;11.77;;
8654;SDS011;13500;52.514;13.462;2024-02-26T08:29:44;13.67;;;10.67;;
8654;SDS011;13500;52.514;13.462;2024-02-26T08:32:12;18.00;;;12.10;;
8654;SDS011;13500;52.514;13.462;2024-02-26T08:34:40;16.70;;;11.70;;
8654;SDS011;13500;52.514;13.462;2024-02-26T08:37:08;14.97;;;10.40;;
8654;SDS011;13500;52.514;13.462;2024-02-26T08:39:37;15.07;;;11.13;;
8654;SDS011;13500;52.514;13.462;2024-02-26T08:42:07;12.70;;;10.63;;
8654;SDS011;13500;52.514;13.462;2024-02-26T08:44:35;13.63;;;10.43;;
8654;SDS011;13500;52.514;13.462;2024-02-26T08:47:03;11.83;;;10.50;;
8654;SDS011;13500;52.514;13.462;2024-02-26T08:49:31;12.47;;;10.93;;
8654;SDS011;13500;52.514;13.462;2024-02-26T08:51:59;13.97;;;10.60;;
8654;SDS011;13500;52.514;13.462;2024-02-26T08:54:28;13.60;;;10.73;;
8654;SDS011;13500;52.514;13.462;2024-02-26T08:56:56;13.60;;;10.50;;
8654;SDS011;13500;52.514;13.462;2024-02-26T08:59:25;12.20;;;10.87;;
8654;SDS011;13500;52.514;13.462;2024-02-26T09:01:53;14.53;;;10.70;;
8654;SDS011;13500;52.514;13.462;2024-02-26T09:04:21;11.67;;;10.50;;
8654;SDS011;13500;52.514;13.462;2024-02-26T09:06:49;15.97;;;10.57;;
8654;SDS011;13500;52.514;13.462;2024-02-26T09:09:17;12.93;;;10.97;;
8654;SDS011;13500;52.514;13.462;2024-02-26T09:11:45;15.53;;;10.30;;
8654;SDS011;13500;52.514;13.462;2024-02-26T09:14:13;12.47;;;11.07;;
8654;SDS011;13500;52.514;13.462;2024-02-26T09:16:43;12.90;;;10.73;;
8654;SDS011;13500;52.514;13.462;2024-02-26T09:19:11;12.07;;;10.27;;
8654;SDS011;13500;52.514;13.462;2024-02-26T09:21:42;12.50;;;10.33;;
8654;SDS011;13500;52.514;13.462;2024-02-26T09:24:10;13.33;;;10.43;;
8654;SDS011;13500;52.514;13.462;2024-02-26T09:26:38;13.00;;;10.00;;
8654;SDS011;13500;52.514;13.462;2024-02-26T09:29:06;13.90;;;10.53;;
8654;SDS011;13500;52.514;13.462;2024-02-26T09:31:34;15.63;;;10.27;;
8654;SDS011;13500;52.514;13.462;2024-02-26T09:34:04;13.77;;;10.90;;
8654;SDS011;13500;52.514;13.462;2024-02-26T09:36:32;14.70;;;10.30;;
8654;SDS011;13500;52.514;13.462;2024-02-26T09:39:00;12.90;;;10.83;;
8654;SDS011;13500;52.514;13.462;2024-02-26T09:41:30;13.47;;;10.43;;
8654;SDS011;13500;52.514;13.462;2024-02-26T09:43:58;13.20;;;10.67;;
8654;SDS011;13500;52.514;13.462;2024-02-26T09:46:26;14.30;;;9.67;;
8654;SDS011;13500;52.514;13.462;2024-02-26T09:48:55;12.00;;;9.53;;
8654;SDS011;13500;52.514;13.462;2024-02-26T09:51:24;10.60;;;9.63;;
8654;SDS011;13500;52.514;13.462;2024-02-26T09:53:53;17.43;;;14.07;;
8654;SDS011;13500;52.514;13.462;2024-02-26T09:56:22;13.27;;;9.63;;
8654;SDS011;13500;52.514;13.462;2024-02-26T09:58:50;11.33;;;9.93;;
8654;SDS011;13500;52.514;13.462;2024-02-26T10:01:21;10.17;;;9.17;;
8654;SDS011;13500;52.514;13.462;2024-02-26T10:03:52;11.47;;;9.30;;
8654;SDS011;13500;52.514;13.462;2024-02-26T10:06:24;10.57;;;9.43;;
8654;SDS011;13500;52.514;13.462;2024-02-26T10:08:54;11.33;;;9.23;;
8654;SDS011;13500;52.514;13.462;2024-02-26T10:11:22;14.83;;;11.77;;
8654;SDS011;13500;52.514;13.462;2024-02-26T10:13:51;12.80;;;9.77;;
8654;SDS011;13500;52.514;13.462;2024-02-26T10:16:19;10.50;;;9.40;;
8654;SDS011;13500;52.514;13.462;2024-02-26T10:18:48;11.50;;;10.30;;
8654;SDS011;13500;52.514;13.462;2024-02-26T10:21:19;10.63;;;9.00;;
8654;SDS011;13500;52.514;13.462;2024-02-26T10:23:49;11.07;;;9.70;;
8654;SDS011;13500;52.514;13.462;2024-02-26T10:26:18;10.97;;;9.17;;
8654;SDS011;13500;52.514;13.462;2024-02-26T10:28:46;11.00;;;9.43;;
8654;SDS011;13500;52.514;13.462;2024-02-26T10:31:20;12.60;;;9.47;;
8654;SDS011;13500;52.514;13.462;2024-02-26T10:33:48;11.40;;;9.70;;
8654;SDS011;13500;52.514;13.462;2024-02-26T10:36:17;10.30;;;9.17;;
8654;SDS011;13500;52.514;13.462;2024-02-26T10:38:46;11.87;;;10.10;;
8654;SDS011;13500;52.514;13.462;2024-02-26T10:41:15;13.20;;;8.73;;
8654;SDS011;13500;52.514;13.462;2024-02-26T10:43:43;9.63;;;8.50;;
8654;SDS011;13500;52.514;13.462;2024-02-26T10:46:11;11.63;;;8.77;;
8654;SDS011;13500;52.514;13.462;2024-02-26T10:48:39;11.10;;;8.37;;
8654;SDS011;13500;52.514;13.462;2024-02-26T10:51:07;13.17;;;8.47;;
8654;SDS011;13500;52.514;13.462;2024-02-26T10:53:37;12.40;;;8.87;;
8654;SDS011;13500;52.514;13.462;2024-02-26T10:56:06;9.00;;;8.10;;
8654;SDS011;13500;52.514;13.462;2024-02-26T10:58:35;11.33;;;8.37;;
8654;SDS011;13500;52.514;13.462;2024-02-26T11:01:04;8.13;;;7.33;;
8654;SDS011;13500;52.514;13.462;2024-02-26T11:03:32;11.43;;;7.87;;
8654;SDS011;13500;52.514;13.462;2024-02-26T11:06:03;8.53;;;7.63;;
8654;SDS011;13500;52.514;13.462;2024-02-26T11:08:31;8.57;;;7.63;;
8654;SDS011;13500;52.514;13.462;2024-02-26T11:11:00;10.23;;;7.93;;
8654;SDS011;13500;52.514;13.462;2024-02-26T11:13:33;8.53;;;7.60;;
8654;SDS011;13500;52.514;13.462;2024-02-26T11:16:17;8.23;;;7.17;;
8654;SDS011;13500;52.514;13.462;2024-02-26T11:18:46;8.40;;;7.03;;
8654;SDS011;13500;52.514;13.462;2024-02-26T11:21:16;7.67;;;6.90;;
8654;SDS011;13500;52.514;13.462;2024-02-26T11:23:45;9.73;;;7.67;;
8654;SDS011;13500;52.514;13.462;2024-02-26T11:26:14;8.50;;;6.60;;
8654;SDS011;13500;52.514;13.462;2024-02-26T11:28:44;8.47;;;7.03;;
8654;SDS011;13500;52.514;13.462;2024-02-26T11:31:13;7.63;;;6.90;;
8654;SDS011;13500;52.514;13.462;2024-02-26T11:33:41;8.10;;;7.27;;
8654;SDS011;13500;52.514;13.462;2024-02-26T11:36:09;8.60;;;6.87;;
8654;SDS011;13500;52.514;13.462;2024-02-26T11:38:38;9.77;;;7.70;;
8654;SDS011;13500;52.514;13.462;2024-02-26T11:41:10;8.80;;;7.40;;
8654;SDS011;13500;52.514;13.462;2024-02-26T11:43:52;11.07;;;7.43;;
8654;SDS011;13500;52.514;13.462;2024-02-26T11:46:27;9.00;;;7.70;;
8654;SDS011;13500;52.514;13.462;2024-02-26T11:48:57;13.70;;;7.53;;
8654;SDS011;13500;52.514;13.462;2024-02-26T11:51:33;8.67;;;7.70;;
8654;SDS011;13500;52.514;13.462;2024-02-26T11:54:01;9.67;;;8.27;;
8654;SDS011;13500;52.514;13.462;2024-02-26T11:56:30;10.83;;;8.93;;
8654;SDS011;13500;52.514;13.462;2024-02-26T11:59:03;9.60;;;8.47;;
8654;SDS011;13500;52.514;13.462;2024-02-26T12:01:37;10.33;;;9.20;;
8654;SDS011;13500;52.514;13.462;2024-02-26T12:04:11;11.47;;;8.80;;
8654;SDS011;13500;52.514;13.462;2024-02-26T12:06:41;13.10;;;10.10;;
8654;SDS011;13500;52.514;13.462;2024-02-26T12:09:11;11.73;;;9.00;;
8654;SDS011;13500;52.514;13.462;2024-02-26T12:11:40;11.93;;;8.30;;
8654;SDS011;13500;52.514;13.462;2024-02-26T12:14:10;11.33;;;9.33;;
8654;SDS011;13500;52.514;13.462;2024-02-26T12:16:37;10.43;;;9.33;;
8654;SDS011;13500;52.514;13.462;2024-02-26T12:19:06;11.03;;;9.07;;
8654;SDS011;13500;52.514;13.462;2024-02-26T12:21:36;12.20;;;9.60;;
8654;SDS011;13500;52.514;13.462;2024-02-26T12:24:11;10.63;;;9.53;;
8654;SDS011;13500;52.514;13.462;2024-02-26T12:26:39;10.70;;;8.90;;
8654;SDS011;13500;52.514;13.462;2024-02-26T12:29:09;11.73;;;8.93;;
8654;SDS011;13500;52.514;13.462;2024-02-26T12:31:37;10.00;;;8.93;;
8654;SDS011;13500;52.514;13.462;2024-02-26T12:34:06;9.40;;;8.33;;
8654;SDS011;13500;52.514;13.462;2024-02-26T12:36:36;10.00;;;8.50;;
8654;SDS011;13500;52.514;13.462;2024-02-26T12:39:05;10.23;;;8.93;;
8654;SDS011;13500;52.514;13.462;2024-02-26T12:41:33;9.27;;;8.37;;
8654;SDS011;13500;52.514;13.462;2024-02-26T12:44:01;11.20;;;8.90;;
8654;SDS011;13500;52.514;13.462;2024-02-26T12:46:30;10.63;;;8.30;;
8654;SDS011;13500;52.514;13.462;2024-02-26T12:48:58;9.17;;;7.90;;
8654;SDS011;13500;52.514;13.462;2024-02-26T12:51:27;8.30;;;7.40;;
8654;SDS011;13500;52.514;13.462;2024-02-26T12:53:55;10.63;;;8.07;;
8654;SDS011;13500;52.514;13.462;2024-02-26T12:56:24;9.23;;;8.00;;
8654;SDS011;13500;52.514;13.462;2024-02-26T12:58:53;8.77;;;7.87;;
8654;SDS011;13500;52.514;13.462;2024-02-26T13:01:22;9.40;;;7.40;;
8654;SDS011;13500;52.514;13.462;2024-02-26T13:03:52;9.83;;;7.57;;
8654;SDS011;13500;52.514;13.462;2024-02-26T13:06:21;10.53;;;7.40;;
8654;SDS011;13500;52.514;13.462;2024-02-26T13:08:49;8.33;;;7.53;;
8654;SDS011;13500;52.514;13.462;2024-02-26T13:11:21;9.57;;;7.17;;
8654;SDS011;13500;52.514;13.462;2024-02-26T13:13:49;9.17;;;8.17;;
8654;SDS011;13500;52.514;13.462;2024-02-26T13:16:17;7.67;;;6.57;;
8654;SDS011;13500;52.514;13.462;2024-02-26T13:18:45;11.70;;;8.70;;
8654;SDS011;13500;52.514;13.462;2024-02-26T13:21:15;11.20;;;5.97;;
8654;SDS011;13500;52.514;13.462;2024-02-26T13:23:45;7.03;;;5.50;;
8654;SDS011;13500;52.514;13.462;2024-02-26T13:26:17;6.13;;;5.53;;
8654;SDS011;13500;52.514;13.462;2024-02-26T13:28:44;6.90;;;5.10;;
8654;SDS011;13500;52.514;13.462;2024-02-26T13:31:12;6.03;;;5.17;;
8654;SDS011;13500;52.514;13.462;2024-02-26T13:33:40;6.93;;;5.47;;
8654;SDS011;13500;52.514;13.462;2024-02-26T13:36:08;7.93;;;5.47;;
8654;SDS011;13500;52.514;13.462;2024-02-26T13:38:39;7.43;;;5.80;;
8654;SDS011;13500;52.514;13.462;2024-02-26T13:41:09;11.27;;;6.43;;
8654;SDS011;13500;52.514;13.462;2024-02-26T13:43:37;6.43;;;5.47;;
8654;SDS011;13500;52.514;13.462;2024-02-26T13:46:05;7.77;;;5.37;;
8654;SDS011;13500;52.514;13.462;2024-02-26T13:48:34;5.70;;;5.00;;
8654;SDS011;13500;52.514;13.462;2024-02-26T13:51:03;7.60;;;5.60;;
8654;SDS011;13500;52.514;13.462;2024-02-26T13:53:31;7.60;;;5.50;;
8654;SDS011;13500;52.514;13.462;2024-02-26T13:56:02;9.33;;;6.27;;
8654;SDS011;13500;52.514;13.462;2024-02-26T13:58:32;8.70;;;5.87;;
8654;SDS011;13500;52.514;13.462;2024-02-26T14:01:00;7.97;;;6.30;;
8654;SDS011;13500;52.514;13.462;2024-02-26T14:03:29;7.47;;;5.40;;
8654;SDS011;13500;52.514;13.462;2024-02-26T14:05:57;7.57;;;5.57;;
8654;SDS011;13500;52.514;13.462;2024-02-26T14:08:26;7.73;;;5.50;;
8654;SDS011;13500;52.514;13.462;2024-02-26T14:10:54;8.63;;;5.77;;
8654;SDS011;13500;52.514;13.462;2024-02-26T14:13:23;7.60;;;5.97;;
8654;SDS011;13500;52.514;13.462;2024-02-26T14:15:51;7.27;;;5.73;;
8654;SDS011;13500;52.514;13.462;2024-02-26T14:18:19;8.17;;;5.40;;
8654;SDS011;13500;52.514;13.462;2024-02-26T14:20:47;7.30;;;5.60;;
8654;SDS011;13500;52.514;13.462;2024-02-26T14:23:15;8.83;;;5.87;;
8654;SDS011;13500;52.514;13.462;2024-02-26T14:25:43;6.67;;;5.73;;
8654;SDS011;13500;52.514;13.462;2024-02-26T14:28:11;7.83;;;6.60;;
8654;SDS011;13500;52.514;13.462;2024-02-26T14:30:48;9.30;;;6.30;;
8654;SDS011;13500;52.514;13.462;2024-02-26T14:33:16;9.30;;;5.83;;
8654;SDS011;13500;52.514;13.462;2024-02-26T14:35:45;8.40;;;5.37;;
8654;SDS011;13500;52.514;13.462;2024-02-26T14:38:12;8.33;;;6.07;;
8654;SDS011;13500;52.514;13.462;2024-02-26T14:40:41;9.13;;;6.40;;
8654;SDS011;13500;52.514;13.462;2024-02-26T14:43:09;8.37;;;5.63;;
8654;SDS011;13500;52.514;13.462;2024-02-26T14:45:38;8.73;;;6.43;;
8654;SDS011;13500;52.514;13.462;2024-02-26T14:48:07;7.87;;;6.23;;